createdAt,value
2023-03-05T00:09:02.957Z,1009.7
2023-03-05T00:19:09.359Z,1009.6
2023-03-05T00:29:15.676Z,1009.5
2023-03-05T00:39:22.189Z,1009.5
2023-03-05T00:49:28.343Z,1009.4
2023-03-05T00:59:34.690Z,1009.4
2023-03-05T01:09:41.014Z,1009.3
2023-03-05T01:19:47.362Z,1009.2
2023-03-05T01:29:53.690Z,1009.1
2023-03-05T01:40:00.195Z,1009
2023-03-05T01:50:06.377Z,1008.9
2023-03-05T02:00:12.771Z,1008.8
2023-03-05T02:10:19.068Z,1008.7
2023-03-05T02:20:25.430Z,1008.6
2023-03-05T02:30:31.761Z,1008.5
2023-03-05T02:40:38.147Z,1008.4
2023-03-05T02:50:44.459Z,1008.3
2023-03-05T03:00:50.881Z,1008.2
2023-03-05T03:10:57.172Z,1008.2
2023-03-05T03:21:03.539Z,1008
2023-03-05T03:31:09.882Z,1007.9
2023-03-05T03:41:16.250Z,1007.8
2023-03-05T03:51:24.136Z,1007.6
2023-03-05T04:01:30.509Z,1007.5
2023-03-05T04:11:36.833Z,1007.5
2023-03-05T04:21:43.208Z,1007.4
2023-03-05T04:31:49.539Z,1007.3
2023-03-05T04:41:55.903Z,1007.2
2023-03-05T04:52:02.206Z,1007.1
2023-03-05T05:02:08.579Z,1007.1
2023-03-05T05:12:14.922Z,1007
2023-03-05T05:22:21.269Z,1007
2023-03-05T05:32:27.614Z,1006.9
2023-03-05T05:42:33.977Z,1006.9
2023-03-05T05:52:40.354Z,1006.7
2023-03-05T06:02:46.684Z,1006.7
2023-03-05T06:12:52.991Z,1006.7
2023-03-05T06:22:59.350Z,1006.7
2023-03-05T06:33:05.661Z,1006.7
2023-03-05T06:43:12.049Z,1006.7
2023-03-05T06:53:18.381Z,1006.7
2023-03-05T07:03:24.737Z,1006.8
2023-03-05T07:13:31.050Z,1006.6
2023-03-05T07:23:37.425Z,1006.6
2023-03-05T07:33:43.766Z,1006.6
2023-03-05T07:43:50.125Z,1006.5
2023-03-05T07:53:56.431Z,1006.4
2023-03-05T08:04:04.446Z,1006.3
2023-03-05T08:14:10.739Z,1006.3
2023-03-05T08:24:17.109Z,1006.2
2023-03-05T08:34:23.434Z,1006.1
2023-03-05T08:54:37.751Z,1005.9
2023-03-05T09:04:44.081Z,1005.9
2023-03-05T09:14:50.431Z,1005.8
2023-03-05T09:24:56.766Z,1005.8
2023-03-05T09:35:03.122Z,1005.7
2023-03-05T09:45:09.457Z,1005.6
2023-03-05T09:55:15.822Z,1005.5
2023-03-05T10:05:22.135Z,1005.4
2023-03-05T10:15:30.164Z,1005.4
2023-03-05T10:25:34.850Z,1005.3
2023-03-05T10:35:42.859Z,1005.1
2023-03-05T10:45:50.817Z,1005
2023-03-05T10:55:57.113Z,1004.9
2023-03-05T11:06:03.405Z,1004.8
2023-03-05T11:16:09.830Z,1004.7
2023-03-05T11:26:16.108Z,1004.6
2023-03-05T11:36:22.467Z,1004.5
2023-03-05T11:46:28.903Z,1004.4
2023-03-05T11:56:35.149Z,1004.3
2023-03-05T12:06:41.532Z,1004.2
2023-03-05T12:16:47.903Z,1004
2023-03-05T12:26:54.231Z,1003.8
2023-03-05T12:37:00.564Z,1003.7
2023-03-05T12:47:06.888Z,1003.5
2023-03-05T12:57:13.270Z,1003.3
2023-03-05T13:07:19.588Z,1003.2
2023-03-05T13:17:25.974Z,1003
2023-03-05T13:27:32.263Z,1003
2023-03-05T13:37:38.775Z,1002.8
2023-03-05T13:47:46.571Z,1002.8
2023-03-05T13:57:53.012Z,1002.7
2023-03-05T14:07:59.248Z,1002.4
2023-03-05T14:18:05.638Z,1002.3
2023-03-05T14:28:11.948Z,1002.2
2023-03-05T14:38:18.354Z,1002
2023-03-05T14:48:24.642Z,1001.9
2023-03-05T14:58:31.043Z,1001.8
2023-03-05T15:08:37.446Z,1001.6
2023-03-05T15:18:43.717Z,1001.4
2023-03-05T15:28:50.037Z,1001.4
2023-03-05T15:38:56.377Z,1001.3
2023-03-05T15:49:02.708Z,1001.2
2023-03-05T15:59:10.741Z,1001
2023-03-05T16:09:18.602Z,1000.9
2023-03-05T16:19:24.985Z,1000.8
2023-03-05T16:29:31.301Z,1000.7
2023-03-05T16:39:37.694Z,1000.6
2023-03-05T16:49:43.997Z,1000.5
2023-03-05T16:59:50.350Z,1000.5
2023-03-05T17:09:56.700Z,1000.4
2023-03-05T17:20:03.135Z,1000.4
2023-03-05T17:30:09.384Z,1000.3
2023-03-05T17:40:15.745Z,1000.3
2023-03-05T17:50:22.067Z,1000.3
2023-03-05T18:00:28.454Z,1000.2
2023-03-05T18:10:34.780Z,1000.2
2023-03-05T18:20:41.141Z,1000.1
2023-03-05T18:30:47.527Z,1000.1
2023-03-05T18:40:53.848Z,1000.1
2023-03-05T18:51:02.015Z,999.8
2023-03-05T19:01:06.592Z,999.8
2023-03-05T19:11:12.879Z,999.7
2023-03-05T19:21:20.818Z,999.6
2023-03-05T19:31:27.259Z,999.6
2023-03-05T19:41:33.526Z,999.5
2023-03-05T19:51:39.833Z,999.5
2023-03-05T20:01:46.295Z,999.4
2023-03-05T20:11:52.540Z,999.3
2023-03-05T20:21:58.916Z,999.3
2023-03-05T20:32:05.280Z,999.2
2023-03-05T20:42:11.597Z,999.1
2023-03-05T20:52:17.935Z,999
2023-03-05T21:02:25.895Z,998.8
2023-03-05T21:12:32.209Z,998.8
2023-03-05T21:22:38.607Z,998.7
2023-03-05T21:32:44.910Z,998.5
2023-03-05T21:42:51.299Z,998.4
2023-03-05T21:52:57.596Z,998.3
2023-03-05T22:03:03.984Z,998.2
2023-03-05T22:13:10.299Z,998
2023-03-05T22:23:16.674Z,997.9
2023-03-05T22:33:23.314Z,997.7
2023-03-05T22:43:29.346Z,997.6
2023-03-05T22:53:35.670Z,997.5
2023-03-05T23:03:42.207Z,997.5
2023-03-05T23:13:48.364Z,997.4
2023-03-05T23:23:54.740Z,997.3
2023-03-05T23:34:01.085Z,997.3
2023-03-05T23:44:07.441Z,997.3
2023-03-05T23:54:13.762Z,997.2
